Time;durP1;ratioP1;P1;durP2;ratioP2;P2;SDS_P1;SDS_P2;PMS_P1;PMS_P2;Temp;Humidity;BMP_temperature;BMP_pressure;BME280_temperature;BME280_humidity;BME280_pressure;Samples;Min_cycle;Max_cycle;Signal;HPM_P1;HPM_P2
2022/04/08 00:00:16;;;;;;;;;1.00;1.00;;;;;10.31;57.83;100120.28;5079006;27;45391;-74
2022/04/08 00:02:43;;;;;;;;;0.75;0.00;;;;;10.31;57.72;100128.06;5080182;27;45278;-73
2022/04/08 00:05:09;;;;;;;;;2.00;0.00;;;;;10.34;57.25;100130.56;5078706;28;46025;-71
2022/04/08 00:07:34;;;;;;;;;0.50;0.50;;;;;10.31;57.43;100125.47;5078514;28;45326;-70
2022/04/08 00:10:00;;;;;;;;;1.00;0.25;;;;;10.30;57.17;100110.78;5079751;27;45778;-70
2022/04/08 00:12:25;;;;;;;;;0.50;0.00;;;;;10.36;57.79;100120.09;5078346;27;45586;-71
2022/04/08 00:14:50;;;;;;;;;1.00;0.00;;;;;10.36;57.59;100118.34;5078904;27;46038;-71
2022/04/08 00:17:16;;;;;;;;;1.00;1.00;;;;;10.35;58.03;100131.41;5079627;27;45481;-71
2022/04/08 00:19:41;;;;;;;;;2.25;0.00;;;;;10.33;57.75;100128.00;5079991;27;45376;-70
2022/04/08 00:22:07;;;;;;;;;3.50;1.00;;;;;10.37;57.59;100121.81;5079646;27;45298;-71
2022/04/08 00:24:33;;;;;;;;;1.00;1.00;;;;;10.39;57.66;100112.19;5079634;27;45330;-70
2022/04/08 00:26:58;;;;;;;;;0.75;0.75;;;;;10.37;57.91;100111.41;5079058;28;45324;-71
2022/04/08 00:29:23;;;;;;;;;0.00;0.00;;;;;10.41;57.82;100102.63;5077209;27;45759;-71
2022/04/08 00:31:50;;;;;;;;;3.00;0.00;;;;;10.43;57.79;100107.75;5077505;27;45483;-70
2022/04/08 00:34:16;;;;;;;;;0.00;0.00;;;;;10.41;57.87;100107.81;5077196;27;45387;-71
2022/04/08 00:36:41;;;;;;;;;4.75;0.75;;;;;10.40;57.61;100119.09;5070489;27;45447;-70
2022/04/08 00:39:11;;;;;;;;;1.00;1.00;;;;;10.38;57.94;100109.66;5077334;27;45522;-71
2022/04/08 00:41:37;;;;;;;;;0.75;0.00;;;;;10.36;58.46;100110.56;5077431;27;45687;-70
2022/04/08 00:44:02;;;;;;;;;2.00;1.00;;;;;10.41;58.33;100106.94;5079323;27;45342;-70
2022/04/08 00:46:28;;;;;;;;;2.75;0.50;;;;;10.37;58.28;100106.22;5061312;28;45361;-72
2022/04/08 00:48:53;;;;;;;;;0.50;0.50;;;;;10.35;58.56;100095.88;5075171;28;45283;-71
2022/04/08 00:51:19;;;;;;;;;0.75;0.50;;;;;10.36;58.40;100083.75;5079531;27;45212;-71
2022/04/08 00:53:46;;;;;;;;;1.00;0.75;;;;;10.34;58.87;100082.97;5077260;28;47951;-71
2022/04/08 00:56:12;;;;;;;;;1.00;0.00;;;;;10.35;59.04;100090.69;5079665;27;45755;-68
2022/04/08 00:58:38;;;;;;;;;2.00;0.00;;;;;10.35;59.31;100087.25;5079210;27;45424;-67
2022/04/08 01:01:03;;;;;;;;;2.00;0.00;;;;;10.31;59.58;100083.94;5079560;27;45185;-67
2022/04/08 01:03:28;;;;;;;;;1.00;1.00;;;;;10.33;59.46;100083.88;5079285;27;46589;-67
2022/04/08 01:05:54;;;;;;;;;0.50;0.00;;;;;10.31;59.87;100091.72;5069427;27;46700;-68
2022/04/08 01:08:20;;;;;;;;;0.00;0.00;;;;;10.35;59.73;100084.66;5075662;28;45417;-68
2022/04/08 01:10:48;;;;;;;;;1.00;0.00;;;;;10.28;59.71;100081.44;5079392;27;45341;-67
2022/04/08 01:13:13;;;;;;;;;1.00;1.00;;;;;10.27;60.14;100082.34;5081767;27;45378;-68
2022/04/08 01:15:38;;;;;;;;;3.75;0.00;;;;;10.26;60.13;100078.06;5082888;27;45360;-68
2022/04/08 01:18:07;;;;;;;;;0.25;0.25;;;;;10.27;59.86;100077.16;5081484;28;45260;-66
2022/04/08 01:20:33;;;;;;;;;1.00;0.50;;;;;10.27;59.95;100079.75;5081423;28;45448;-66
2022/04/08 01:22:59;;;;;;;;;2.00;0.00;;;;;10.27;60.00;100068.53;5082190;27;47262;-66
2022/04/08 01:25:24;;;;;;;;;0.25;0.00;;;;;10.31;59.96;100072.69;5082615;27;45373;-66
2022/04/08 01:27:50;;;;;;;;;2.00;0.00;;;;;10.34;60.25;100064.78;5082251;27;45394;-72
2022/04/08 01:30:18;;;;;;;;;2.00;0.00;;;;;10.37;59.56;100067.25;5082603;27;45271;-71
2022/04/08 01:32:43;;;;;;;;;2.25;0.00;;;;;10.40;59.84;100056.75;5080917;28;48192;-71
2022/04/08 01:35:09;;;;;;;;;1.00;0.00;;;;;10.43;59.59;100064.44;5080787;27;45495;-71
2022/04/08 01:37:35;;;;;;;;;1.00;1.00;;;;;10.42;59.77;100064.50;5077775;28;45200;-66
2022/04/08 01:40:00;;;;;;;;;2.25;1.00;;;;;10.39;60.10;100062.84;5082479;27;45441;-66
2022/04/08 01:42:26;;;;;;;;;4.00;0.25;;;;;10.39;59.71;100060.25;5082056;27;45515;-66
2022/04/08 01:44:52;;;;;;;;;1.75;1.00;;;;;10.40;59.83;100061.09;5071022;27;45461;-66
2022/04/08 01:47:19;;;;;;;;;1.25;0.50;;;;;10.38;59.81;100058.56;5078321;27;45285;-66
2022/04/08 01:49:44;;;;;;;;;1.00;1.00;;;;;10.38;60.09;100062.91;5082470;27;45401;-66
2022/04/08 01:52:10;;;;;;;;;3.00;0.75;;;;;10.35;60.35;100048.28;5081657;27;45374;-66
2022/04/08 01:54:35;;;;;;;;;1.50;0.00;;;;;10.37;60.47;100043.88;5082314;27;45387;-66
2022/04/08 01:57:00;;;;;;;;;0.00;0.00;;;;;10.37;60.14;100056.88;5082263;27;45371;-66
2022/04/08 01:59:26;;;;;;;;;0.25;0.25;;;;;10.40;59.98;100048.97;5082101;27;45530;-66
2022/04/08 02:01:51;;;;;;;;;0.00;0.00;;;;;10.39;60.16;100042.06;5082032;27;45414;-66
2022/04/08 02:04:17;;;;;;;;;0.00;0.00;;;;;10.38;60.22;100055.97;5080790;28;45313;-66
2022/04/08 02:06:42;;;;;;;;;0.00;0.00;;;;;10.35;60.38;100056.94;5079980;28;45474;-66
2022/04/08 02:09:09;;;;;;;;;2.25;1.00;;;;;10.39;60.08;100051.63;5080094;27;45360;-66
2022/04/08 02:11:36;;;;;;;;;0.75;0.75;;;;;10.43;60.40;100053.22;5081505;27;46383;-66
2022/04/08 02:14:02;;;;;;;;;1.00;0.00;;;;;10.44;60.23;100054.91;5080007;28;45757;-66
2022/04/08 02:16:28;;;;;;;;;1.00;1.00;;;;;10.43;59.77;100051.47;5081007;27;45279;-66
2022/04/08 02:18:53;;;;;;;;;0.75;0.00;;;;;10.43;59.83;100046.28;5081851;27;45205;-71
2022/04/08 02:21:19;;;;;;;;;4.50;1.25;;;;;10.44;60.43;100047.97;5081450;27;45425;-72
2022/04/08 02:23:49;;;;;;;;;1.25;1.25;;;;;10.48;59.90;100052.13;5080510;27;45353;-72
2022/04/08 02:26:16;;;;;;;;;0.25;0.00;;;;;10.44;59.86;100042.75;5081573;27;45294;-72
2022/04/08 02:28:42;;;;;;;;;0.25;0.00;;;;;10.43;59.92;100043.66;5079837;27;45391;-72
2022/04/08 02:31:07;;;;;;;;;0.00;0.00;;;;;10.45;59.82;100043.63;5081380;27;45227;-71
2022/04/08 02:33:33;;;;;;;;;0.50;0.50;;;;;10.42;60.21;100039.38;5081465;27;45267;-70
2022/04/08 02:35:58;;;;;;;;;3.00;0.25;;;;;10.42;60.16;100033.34;5074835;27;45563;-71
2022/04/08 02:38:23;;;;;;;;;1.00;0.50;;;;;10.45;59.81;100036.66;5081155;27;45588;-73
2022/04/08 02:40:49;;;;;;;;;1.00;1.00;;;;;10.49;60.17;100037.38;5079931;27;47019;-73
2022/04/08 02:43:14;;;;;;;;;2.00;0.75;;;;;10.48;59.92;100025.31;5081275;27;45420;-74
2022/04/08 02:45:40;;;;;;;;;0.00;0.00;;;;;10.45;60.22;100026.28;5065475;27;45386;-68
2022/04/08 02:48:05;;;;;;;;;0.50;0.00;;;;;10.47;60.41;100024.47;5081002;27;45368;-68
2022/04/08 02:50:30;;;;;;;;;2.00;1.00;;;;;10.50;60.49;100020.91;5080937;27;45521;-69
2022/04/08 02:52:56;;;;;;;;;1.00;1.00;;;;;10.49;59.94;100024.41;5079578;27;45463;-67
2022/04/08 02:55:21;;;;;;;;;0.75;0.00;;;;;10.46;61.07;100014.97;5079604;27;45504;-66
2022/04/08 02:57:47;;;;;;;;;0.25;0.25;;;;;10.45;60.80;100004.66;5079402;27;45399;-66
2022/04/08 03:00:19;;;;;;;;;1.75;0.00;;;;;10.45;60.64;100000.28;5079197;27;45471;-66
2022/04/08 03:02:46;;;;;;;;;0.00;0.00;;;;;10.50;60.61;99997.50;5079459;27;45583;-66
2022/04/08 03:05:12;;;;;;;;;1.00;1.00;;;;;10.55;60.91;100000.78;5079410;27;45442;-66
2022/04/08 03:07:37;;;;;;;;;0.75;0.00;;;;;10.58;60.19;99998.03;5080089;28;45477;-66
2022/04/08 03:10:04;;;;;;;;;3.00;0.00;;;;;10.56;60.29;99987.72;5080810;28;46092;-67
2022/04/08 03:12:31;;;;;;;;;2.50;1.00;;;;;10.57;60.56;99991.16;5080722;27;45390;-67
2022/04/08 03:14:57;;;;;;;;;0.75;0.75;;;;;10.62;60.71;99995.28;5080398;27;45402;-67
2022/04/08 03:17:22;;;;;;;;;1.50;0.25;;;;;10.59;60.94;99981.56;5080048;27;45406;-67
2022/04/08 03:19:48;;;;;;;;;3.00;0.00;;;;;10.61;60.96;99993.59;5080727;27;45310;-66
2022/04/08 03:22:13;;;;;;;;;0.00;0.00;;;;;10.57;61.55;99981.63;5080473;27;45330;-68
2022/04/08 03:24:39;;;;;;;;;0.25;0.25;;;;;10.55;61.48;99986.03;5080822;27;45354;-66
2022/04/08 03:27:04;;;;;;;;;0.50;0.50;;;;;10.55;61.22;99986.03;5080505;27;45267;-67
2022/04/08 03:29:30;;;;;;;;;1.50;1.50;;;;;10.56;61.35;99979.06;5080240;27;45371;-66
2022/04/08 03:31:55;;;;;;;;;1.00;1.00;;;;;10.56;61.41;99979.94;5080530;27;45296;-67
2022/04/08 03:34:20;;;;;;;;;1.00;1.00;;;;;10.59;61.13;99984.16;5080382;27;45260;-67
2022/04/08 03:36:47;;;;;;;;;0.00;0.00;;;;;10.58;61.91;99983.31;5073779;27;45663;-68
2022/04/08 03:39:13;;;;;;;;;2.50;1.25;;;;;10.60;61.69;99973.69;5080269;27;45462;-68
2022/04/08 03:41:41;;;;;;;;;3.00;1.00;;;;;10.61;62.18;99983.22;5080457;27;45180;-69
2022/04/08 03:44:07;;;;;;;;;1.75;0.50;;;;;10.56;62.51;99966.94;5078605;27;45298;-69
2022/04/08 03:46:32;;;;;;;;;3.00;2.00;;;;;10.55;62.38;99960.03;5065615;27;45172;-68
2022/04/08 03:48:58;;;;;;;;;0.00;0.00;;;;;10.55;62.96;99956.59;5078840;28;48072;-68
2022/04/08 03:51:24;;;;;;;;;0.50;0.50;;;;;10.52;62.97;99947.19;5080260;27;45199;-67
2022/04/08 03:53:49;;;;;;;;;0.00;0.00;;;;;10.50;63.00;99938.59;5078679;27;45429;-70
2022/04/08 03:56:14;;;;;;;;;2.00;0.25;;;;;10.55;62.75;99936.66;5074913;28;45397;-73
2022/04/08 03:58:40;;;;;;;;;1.00;1.00;;;;;10.63;63.35;99932.03;5075898;28;45484;-68
2022/04/08 04:01:05;;;;;;;;;1.00;1.00;;;;;10.66;63.50;99931.91;5080234;27;45350;-67
2022/04/08 04:03:30;;;;;;;;;4.75;1.00;;;;;10.69;63.67;99922.28;5080274;27;45658;-68
2022/04/08 04:05:56;;;;;;;;;0.75;0.75;;;;;10.68;63.91;99923.19;5078676;28;45447;-68
2022/04/08 04:08:21;;;;;;;;;1.00;1.00;;;;;10.64;64.49;99917.28;5079844;27;46782;-67
2022/04/08 04:10:48;;;;;;;;;2.75;0.75;;;;;10.63;64.52;99913.00;5080156;27;45313;-67
2022/04/08 04:13:14;;;;;;;;;2.00;0.50;;;;;10.58;64.85;99905.38;5079587;27;45273;-67
2022/04/08 04:15:39;;;;;;;;;3.00;1.50;;;;;10.60;64.90;99903.53;5080165;28;45299;-67
2022/04/08 04:18:04;;;;;;;;;1.00;0.25;;;;;10.58;65.00;99892.38;5078464;28;47140;-67
2022/04/08 04:20:30;;;;;;;;;1.00;1.00;;;;;10.64;65.68;99892.13;5079932;27;45278;-67
2022/04/08 04:22:56;;;;;;;;;3.00;1.00;;;;;10.70;65.63;99887.59;5079682;27;45294;-68
2022/04/08 04:25:21;;;;;;;;;6.00;1.75;;;;;10.71;66.03;99884.09;5079965;27;45243;-68
2022/04/08 04:27:47;;;;;;;;;0.00;0.00;;;;;10.61;66.22;99881.88;5079550;27;46505;-69
2022/04/08 04:30:12;;;;;;;;;1.00;1.00;;;;;10.60;66.26;99874.97;5079838;27;45249;-67
2022/04/08 04:32:37;;;;;;;;;0.25;0.00;;;;;10.61;66.40;99881.00;5079750;27;45307;-67
2022/04/08 04:35:06;;;;;;;;;1.50;1.00;;;;;10.61;66.66;99863.69;5078410;27;45542;-67
2022/04/08 04:37:36;;;;;;;;;1.00;1.00;;;;;10.62;67.18;99862.78;5073994;28;46206;-69
2022/04/08 04:40:02;;;;;;;;;1.00;1.00;;;;;10.62;67.39;99849.78;5079456;27;45724;-68
2022/04/08 04:42:28;;;;;;;;;1.75;0.00;;;;;10.65;67.68;99851.41;5079270;27;45278;-68
2022/04/08 04:44:54;;;;;;;;;1.50;1.50;;;;;10.65;67.87;99847.06;5071349;27;45357;-67
2022/04/08 04:47:20;;;;;;;;;2.50;1.00;;;;;10.58;68.38;99839.56;5080817;27;45637;-66
2022/04/08 04:49:45;;;;;;;;;2.00;1.00;;;;;10.55;68.56;99837.09;5082911;27;45365;-66
2022/04/08 04:52:10;;;;;;;;;1.50;1.50;;;;;10.56;68.41;99826.66;5082663;27;45441;-66
2022/04/08 04:54:36;;;;;;;;;3.50;1.00;;;;;10.58;68.59;99821.38;5081067;27;45578;-66
2022/04/08 04:57:01;;;;;;;;;1.00;1.00;;;;;10.58;68.40;99811.84;5081966;27;45400;-66
2022/04/08 04:59:27;;;;;;;;;2.75;1.75;;;;;10.60;68.50;99806.56;5082686;27;45280;-66
2022/04/08 05:01:54;;;;;;;;;1.00;0.00;;;;;10.57;68.63;99797.16;5082748;27;45287;-68
2022/04/08 05:04:19;;;;;;;;;4.50;0.75;;;;;10.61;68.36;99796.13;5082791;27;45324;-73
2022/04/08 05:06:44;;;;;;;;;3.50;1.00;;;;;10.63;68.83;99790.88;5082443;28;46425;-72
2022/04/08 05:09:10;;;;;;;;;1.75;1.75;;;;;10.64;68.80;99789.97;5082950;27;45291;-72
2022/04/08 05:11:35;;;;;;;;;0.75;0.75;;;;;10.62;68.52;99784.84;5082547;27;45206;-67
2022/04/08 05:14:01;;;;;;;;;0.50;0.50;;;;;10.62;68.68;99773.59;5082510;27;45238;-73
2022/04/08 05:16:27;;;;;;;;;0.00;0.00;;;;;10.59;69.00;99758.97;5082501;28;46043;-73
2022/04/08 05:18:53;;;;;;;;;2.25;1.75;;;;;10.61;69.26;99757.16;5081147;28;45423;-75
2022/04/08 05:21:18;;;;;;;;;1.00;1.00;;;;;10.63;68.96;99752.75;5077443;28;45189;-75
2022/04/08 05:23:43;;;;;;;;;4.00;3.25;;;;;10.54;69.06;99747.09;5054519;28;45326;-73
2022/04/08 05:26:09;;;;;;;;;3.00;2.00;;;;;10.46;68.45;99746.59;5080828;28;48072;-76
2022/04/08 05:28:34;;;;;;;;;2.00;1.00;;;;;10.49;69.07;99741.25;5081959;27;45453;-76
2022/04/08 05:30:59;;;;;;;;;2.00;0.00;;;;;10.52;68.68;99746.31;5082071;27;45597;-74
2022/04/08 05:33:25;;;;;;;;;3.00;1.25;;;;;10.53;69.40;99742.81;5081967;27;45460;-73
2022/04/08 05:35:50;;;;;;;;;1.00;1.00;;;;;10.54;69.36;99721.94;5075120;27;45492;-68
2022/04/08 05:38:16;;;;;;;;;3.00;1.75;;;;;10.56;69.25;99727.91;5081768;27;45349;-69
2022/04/08 05:40:41;;;;;;;;;12.50;8.00;;;;;10.57;69.14;99713.19;5082060;27;45408;-68
2022/04/08 05:43:08;;;;;;;;;5.25;0.00;;;;;10.60;69.04;99713.03;5081777;27;45356;-67
2022/04/08 05:45:33;;;;;;;;;0.25;0.25;;;;;10.59;68.48;99712.19;5066689;27;46525;-69
2022/04/08 05:48:03;;;;;;;;;0.00;0.00;;;;;10.61;68.44;99710.41;5082097;27;45338;-77
2022/04/08 05:50:28;;;;;;;;;0.50;0.50;;;;;10.61;68.25;99697.41;5080112;28;45200;-69
2022/04/08 05:52:54;;;;;;;;;2.00;1.00;;;;;10.61;68.42;99701.72;5082070;27;45200;-70
2022/04/08 05:55:19;;;;;;;;;3.25;2.25;;;;;10.61;68.03;99691.34;5081454;27;45368;-76
2022/04/08 05:57:45;;;;;;;;;5.25;1.75;;;;;10.61;68.34;99687.03;5081724;27;45422;-76
2022/04/08 06:00:13;;;;;;;;;1.00;1.00;;;;;10.61;68.69;99687.03;5081713;27;45384;-72
2022/04/08 06:02:43;;;;;;;;;0.00;0.00;;;;;10.63;68.07;99686.94;5081748;27;45376;-68
2022/04/08 06:05:09;;;;;;;;;2.75;1.00;;;;;10.63;67.97;99673.97;5081236;27;45333;-74
2022/04/08 06:07:35;;;;;;;;;1.00;1.00;;;;;10.59;68.49;99665.44;5081486;27;45271;-73
2022/04/08 06:10:01;;;;;;;;;2.00;2.00;;;;;10.64;68.30;99670.44;5081607;27;45638;-68
2022/04/08 06:12:27;;;;;;;;;1.00;1.00;;;;;10.66;68.23;99671.22;5081477;27;45375;-66
2022/04/08 06:14:53;;;;;;;;;4.00;2.00;;;;;10.68;68.58;99660.75;5081154;27;45342;-65
2022/04/08 06:17:18;;;;;;;;;5.00;5.00;;;;;10.66;68.04;99653.03;5079682;28;45831;-65
2022/04/08 06:19:46;;;;;;;;;0.25;0.25;;;;;10.63;68.22;99642.78;5081622;27;45344;-68
2022/04/08 06:22:12;;;;;;;;;1.00;1.00;;;;;10.62;68.18;99639.34;5081321;27;45420;-69
2022/04/08 06:24:38;;;;;;;;;1.00;1.00;;;;;10.62;67.91;99633.31;5077144;27;45959;-66
2022/04/08 06:27:03;;;;;;;;;4.00;2.00;;;;;10.63;67.85;99619.41;5071410;28;45480;-64
2022/04/08 06:29:28;;;;;;;;;1.25;1.00;;;;;10.62;67.90;99621.16;5080874;27;45276;-64
2022/04/08 06:31:54;;;;;;;;;3.00;1.00;;;;;10.60;67.85;99606.53;5081324;27;45220;-64
2022/04/08 06:34:19;;;;;;;;;3.50;3.25;;;;;10.56;68.07;99600.63;5078990;28;47116;-64
2022/04/08 06:36:44;;;;;;;;;2.00;2.00;;;;;10.56;68.20;99598.03;5074249;27;45278;-64
2022/04/08 06:39:10;;;;;;;;;1.00;1.00;;;;;10.54;68.81;99593.81;5081049;27;45624;-64
2022/04/08 06:41:35;;;;;;;;;1.25;1.00;;;;;10.50;68.96;99600.91;5081121;27;45627;-64
2022/04/08 06:44:02;;;;;;;;;2.25;1.00;;;;;10.44;67.96;99593.41;5079461;27;45450;-63
2022/04/08 06:46:28;;;;;;;;;1.25;1.25;;;;;10.35;68.40;99593.81;5071671;27;46065;-75
2022/04/08 06:48:54;;;;;;;;;1.50;1.00;;;;;10.32;68.95;99605.19;5079288;28;45247;-75
2022/04/08 06:51:19;;;;;;;;;5.00;2.00;;;;;10.31;69.19;99602.66;5079550;28;45372;-76
2022/04/08 06:53:45;;;;;;;;;1.00;1.00;;;;;10.29;68.95;99596.69;5080080;27;45489;-76
2022/04/08 06:56:10;;;;;;;;;2.00;2.00;;;;;10.30;69.96;99600.97;5080389;27;45286;-75
2022/04/08 06:58:39;;;;;;;;;1.50;1.00;;;;;10.28;70.60;99598.44;5081001;28;45290;-76
2022/04/08 07:01:05;;;;;;;;;3.00;1.00;;;;;10.23;75.58;99597.81;5079515;27;45413;-74
2022/04/08 07:03:31;;;;;;;;;1.50;1.50;;;;;10.19;72.70;99595.34;5078363;28;46270;-74
2022/04/08 07:05:56;;;;;;;;;0.75;0.75;;;;;10.07;72.70;99597.59;5074709;27;45363;-74
2022/04/08 07:08:22;;;;;;;;;3.00;1.00;;;;;9.94;73.65;99599.03;5079462;27;45391;-74
2022/04/08 07:10:47;;;;;;;;;3.25;1.75;;;;;9.82;73.00;99596.97;5079464;27;45180;-78
2022/04/08 07:13:12;;;;;;;;;1.75;1.75;;;;;9.73;74.80;99594.75;5079815;27;45310;-78
2022/04/08 07:15:38;;;;;;;;;2.00;1.25;;;;;9.66;75.07;99588.16;5079500;27;45584;-78
2022/04/08 07:18:04;;;;;;;;;2.00;2.00;;;;;9.57;75.84;99575.56;5080768;27;45344;-77
2022/04/08 07:20:30;;;;;;;;;2.50;1.00;;;;;9.46;76.10;99568.22;5080095;27;45486;-76
2022/04/08 07:22:57;;;;;;;;;6.00;3.50;;;;;9.45;76.88;99566.56;5080198;27;45505;-76
2022/04/08 07:25:23;;;;;;;;;2.50;2.00;;;;;9.41;86.67;99559.78;5080619;27;45266;-78
2022/04/08 07:27:55;;;;;;;;;3.00;2.00;;;;;9.37;87.40;99553.88;5095237;27;45274;-81
2022/04/08 07:30:22;;;;;;;;;2.50;1.00;;;;;9.34;86.13;99554.00;5080948;28;45247;-81
2022/04/08 07:32:52;;;;;;;;;3.00;3.00;;;;;9.30;81.00;99544.69;5080773;27;46404;-82
2022/04/08 07:35:18;;;;;;;;;3.00;2.75;;;;;9.29;81.53;99536.97;5077357;27;45446;-77
2022/04/08 07:37:44;;;;;;;;;3.00;1.00;;;;;9.28;81.80;99535.28;5076188;27;45291;-79
2022/04/08 07:40:14;;;;;;;;;3.00;3.00;;;;;9.27;81.68;99526.66;5080316;28;45239;-79
2022/04/08 07:42:43;;;;;;;;;4.75;3.25;;;;;9.26;82.41;99518.97;5080208;28;45444;-78
2022/04/08 07:45:09;;;;;;;;;4.75;4.25;;;;;9.29;82.11;99509.28;5065254;27;45716;-76
2022/04/08 07:47:35;;;;;;;;;7.25;6.25;;;;;9.35;82.23;99495.22;5078596;28;45416;-75
2022/04/08 07:50:03;;;;;;;;;6.50;4.00;;;;;9.40;81.67;99486.34;5080260;27;45185;-69
2022/04/08 07:52:29;;;;;;;;;2.75;2.75;;;;;9.44;81.45;99482.72;5079595;27;46678;-72
2022/04/08 07:54:55;;;;;;;;;2.00;2.00;;;;;9.44;81.26;99479.28;5080066;27;45392;-71
2022/04/08 07:57:21;;;;;;;;;6.50;3.00;;;;;9.44;81.56;99469.75;5074446;28;45295;-71
2022/04/08 07:59:47;;;;;;;;;7.75;4.25;;;;;9.45;81.42;99471.44;5078659;28;45369;-68
2022/04/08 08:02:13;;;;;;;;;8.00;5.00;;;;;9.45;81.35;99445.53;5079636;27;45904;-70
2022/04/08 08:04:39;;;;;;;;;5.75;5.00;;;;;9.46;81.54;99446.34;5079863;27;45405;-68
2022/04/08 08:07:04;;;;;;;;;3.25;2.00;;;;;9.43;81.40;99431.78;5079818;27;45283;-74
2022/04/08 08:09:30;;;;;;;;;4.00;3.50;;;;;9.44;81.68;99419.66;5078621;27;45332;-76
2022/04/08 08:11:55;;;;;;;;;2.75;2.75;;;;;9.46;81.71;99420.44;5079557;27;45998;-75
2022/04/08 08:14:20;;;;;;;;;8.75;3.75;;;;;9.45;81.41;99427.38;5079993;27;45218;-75
2022/04/08 08:16:46;;;;;;;;;3.50;2.75;;;;;9.43;82.02;99412.78;5079696;27;45459;-75
2022/04/08 08:19:11;;;;;;;;;3.00;3.00;;;;;9.45;81.30;99406.63;5079807;28;45278;-75
2022/04/08 08:21:37;;;;;;;;;2.75;1.50;;;;;9.43;80.78;99421.41;5078329;27;47989;-72
2022/04/08 08:24:03;;;;;;;;;4.75;2.00;;;;;9.38;80.57;99414.72;5083448;27;45306;-75
2022/04/08 08:26:30;;;;;;;;;6.00;3.00;;;;;9.36;81.23;99399.22;5083472;27;45321;-73
2022/04/08 08:28:56;;;;;;;;;5.00;4.00;;;;;9.37;81.62;99395.72;5083051;27;45335;-73
2022/04/08 08:31:22;;;;;;;;;6.75;4.25;;;;;9.29;81.47;99413.38;5083025;28;45330;-72
2022/04/08 08:33:47;;;;;;;;;4.75;3.00;;;;;9.24;81.95;99402.38;5081487;28;46043;-72
2022/04/08 08:36:13;;;;;;;;;3.00;3.00;;;;;9.29;82.97;99368.47;5075054;27;45719;-72
2022/04/08 08:38:38;;;;;;;;;4.25;3.00;;;;;9.33;82.77;99377.78;5082168;27;45445;-68
2022/04/08 08:41:05;;;;;;;;;3.00;3.00;;;;;9.32;82.41;99365.72;5082816;27;45394;-73
2022/04/08 08:43:31;;;;;;;;;4.00;3.00;;;;;9.23;82.89;99374.78;5079976;27;45827;-73
2022/04/08 08:45:56;;;;;;;;;4.50;2.00;;;;;9.14;83.39;99376.00;5075960;27;45963;-73
2022/04/08 08:48:22;;;;;;;;;4.00;4.00;;;;;9.10;84.00;99361.50;5082771;28;45458;-72
2022/04/08 08:50:52;;;;;;;;;3.00;3.00;;;;;9.07;84.04;99364.22;5081126;28;46232;-72
2022/04/08 08:53:19;;;;;;;;;2.75;2.75;;;;;9.04;84.96;99351.41;5082767;27;45836;-72
2022/04/08 08:55:50;;;;;;;;;7.00;3.75;;;;;8.95;87.08;99346.59;5082915;27;45354;-72
2022/04/08 08:58:16;;;;;;;;;5.25;2.00;;;;;8.88;87.23;99344.34;5082256;27;45397;-72
2022/04/08 09:00:42;;;;;;;;;3.25;3.25;;;;;8.80;93.99;99337.72;5079530;28;45300;-72
2022/04/08 09:03:09;;;;;;;;;5.50;5.50;;;;;8.80;94.18;99319.59;5082518;27;45334;-72
2022/04/08 09:05:43;;;;;;;;;4.00;4.00;;;;;8.83;87.93;99318.66;5067884;27;45330;-72
2022/04/08 09:08:09;;;;;;;;;4.25;2.25;;;;;8.82;86.99;99284.13;5081377;28;45571;-72
2022/04/08 09:10:40;;;;;;;;;3.00;1.25;;;;;8.84;85.82;99256.41;5082898;27;46396;-71
2022/04/08 09:13:09;;;;;;;;;5.25;2.00;;;;;8.84;85.59;99266.78;5080985;27;45384;-71
2022/04/08 09:15:37;;;;;;;;;3.00;3.00;;;;;8.75;85.57;99277.53;5083083;27;45322;-72
2022/04/08 09:18:09;;;;;;;;;4.50;2.50;;;;;8.66;86.07;99303.00;5082269;27;45252;-71
2022/04/08 09:20:50;;;;;;;;;5.75;3.75;;;;;8.60;86.06;99278.16;5082001;28;46639;-72
2022/04/08 09:23:20;;;;;;;;;3.75;1.25;;;;;8.66;85.37;99261.56;5069477;28;45319;-72
2022/04/08 09:25:48;;;;;;;;;1.25;1.00;;;;;8.51;93.62;99235.41;5082575;28;45218;-72
2022/04/08 09:28:18;;;;;;;;;3.25;1.25;;;;;8.35;85.17;99249.91;5079882;28;45901;-72
2022/04/08 09:30:49;;;;;;;;;3.00;1.75;;;;;8.18;86.54;99266.09;5082066;27;46430;-72
2022/04/08 09:33:16;;;;;;;;;2.75;2.00;;;;;8.05;87.75;99262.34;5080027;28;45487;-72
2022/04/08 09:35:42;;;;;;;;;7.00;2.00;;;;;8.01;88.99;99280.63;5080343;27;45341;-72
2022/04/08 09:38:08;;;;;;;;;3.00;3.00;;;;;7.93;90.69;99302.47;5081739;27;45319;-72
2022/04/08 09:40:42;;;;;;;;;2.25;2.25;;;;;7.79;92.42;99319.41;5080586;28;48118;-72
2022/04/08 09:43:08;;;;;;;;;3.00;3.00;;;;;7.74;93.89;99303.25;5081507;27;45314;-73
2022/04/08 09:45:34;;;;;;;;;5.50;2.00;;;;;7.75;94.49;99267.00;5065943;27;45630;-73
2022/04/08 09:48:01;;;;;;;;;2.50;1.50;;;;;7.68;100.00;99286.25;5082086;27;45366;-73
2022/04/08 09:50:26;;;;;;;;;2.00;1.00;;;;;7.53;100.00;99310.09;5081696;27;46426;-74
2022/04/08 09:52:56;;;;;;;;;3.00;3.00;;;;;7.42;100.00;99297.59;5082029;27;45342;-73
2022/04/08 09:55:23;;;;;;;;;4.25;3.50;;;;;7.50;100.00;99271.44;5081999;27;45287;-72
2022/04/08 09:57:53;;;;;;;;;3.00;2.00;;;;;7.62;100.00;99235.63;5081397;27;45366;-72
2022/04/08 10:00:19;;;;;;;;;5.00;2.50;;;;;7.54;98.64;99273.00;5081545;27;46309;-72
2022/04/08 10:02:46;;;;;;;;;3.00;2.00;;;;;7.39;100.00;99338.19;5074704;28;45521;-72
2022/04/08 10:05:12;;;;;;;;;4.00;2.75;;;;;7.42;100.00;99309.66;5080118;28;45345;-72
2022/04/08 10:07:40;;;;;;;;;8.00;6.50;;;;;7.46;99.12;99264.72;5081427;28;45433;-72
2022/04/08 10:10:28;;;;;;;;;4.50;2.00;;;;;7.52;98.50;99285.16;5081341;27;46145;-72
2022/04/08 10:12:59;;;;;;;;;6.00;6.00;;;;;7.41;100.00;99354.47;5081178;27;45725;-72
2022/04/08 10:15:27;;;;;;;;;3.00;3.00;;;;;7.39;100.00;99351.94;5081165;27;45343;-72
2022/04/08 10:18:03;;;;;;;;;0.00;0.00;;;;;7.44;99.08;99313.88;5080082;27;45309;-72
2022/04/08 10:20:29;;;;;;;;;5.00;5.00;;;;;7.52;98.30;99278.22;5079951;28;47137;-72
2022/04/08 10:23:12;;;;;;;;;3.00;2.50;;;;;7.60;97.56;99275.34;5081464;27;45411;-72
2022/04/08 10:25:39;;;;;;;;;5.00;3.00;;;;;7.63;97.12;99242.47;5081684;27;45398;-72
2022/04/08 10:28:05;;;;;;;;;2.25;2.00;;;;;7.62;99.60;99245.13;5071428;28;45161;-73
2022/04/08 10:30:35;;;;;;;;;1.25;1.25;;;;;7.56;100.00;99228.09;5081215;27;45498;-72
2022/04/08 10:33:02;;;;;;;;;1.75;1.75;;;;;7.52;100.00;99217.94;5081211;27;45718;-72
2022/04/08 10:35:29;;;;;;;;;5.00;1.00;;;;;7.51;100.00;99188.66;5076365;27;45286;-72
2022/04/08 10:38:05;;;;;;;;;6.50;6.00;;;;;7.54;100.00;99149.75;5079244;27;45224;-72
2022/04/08 10:40:34;;;;;;;;;1.00;0.00;;;;;7.60;99.48;99183.09;5081106;27;46258;-72
2022/04/08 10:43:05;;;;;;;;;8.25;6.75;;;;;7.55;98.91;99153.19;5081108;27;45783;-71
2022/04/08 10:45:31;;;;;;;;;9.00;3.00;;;;;7.49;97.28;99148.28;5072421;27;45366;-72
2022/04/08 10:48:12;;;;;;;;;3.00;3.00;;;;;7.48;98.67;99172.44;5081207;27;45430;-72
2022/04/08 10:50:40;;;;;;;;;2.25;1.50;;;;;7.47;96.97;99153.50;5078761;28;47279;-74
2022/04/08 10:53:09;;;;;;;;;2.75;2.00;;;;;7.51;96.63;99175.72;5080902;27;45286;-73
2022/04/08 10:55:48;;;;;;;;;2.00;2.00;;;;;7.50;95.88;99215.41;5073904;27;45327;-72
2022/04/08 10:58:15;;;;;;;;;2.50;2.50;;;;;7.46;97.39;99238.84;5079452;27;45272;-72
2022/04/08 11:00:41;;;;;;;;;3.00;3.00;;;;;7.48;97.71;99129.34;5079243;27;45604;-72
2022/04/08 11:03:10;;;;;;;;;4.00;4.00;;;;;7.51;96.63;99129.22;5081238;27;45849;-72
2022/04/08 11:05:38;;;;;;;;;3.50;2.00;;;;;7.47;94.93;99200.03;5079441;28;45355;-71
2022/04/08 11:08:04;;;;;;;;;4.50;1.50;;;;;7.45;96.44;99185.47;5081096;27;45445;-71
2022/04/08 11:10:31;;;;;;;;;1.00;1.00;;;;;7.38;98.63;99192.63;5080964;27;46411;-71
2022/04/08 11:12:57;;;;;;;;;2.00;2.00;;;;;7.34;98.30;99180.72;5078673;27;45952;-71
2022/04/08 11:15:24;;;;;;;;;2.50;2.50;;;;;7.27;100.00;99172.38;5078397;27;45649;-71
2022/04/08 11:17:51;;;;;;;;;5.00;2.00;;;;;7.25;98.67;99174.19;5079736;27;45373;-71
2022/04/08 11:20:18;;;;;;;;;5.00;2.75;;;;;7.21;98.28;99149.38;5079990;28;45498;-71
2022/04/08 11:22:47;;;;;;;;;7.25;3.50;;;;;7.22;98.37;99145.06;5080046;27;45335;-71
2022/04/08 11:25:27;;;;;;;;;10.25;6.50;;;;;7.26;99.75;99139.69;5080466;27;45424;-72
2022/04/08 11:28:05;;;;;;;;;8.00;6.00;;;;;7.42;99.45;99131.34;5080125;27;45383;-72
2022/04/08 11:30:33;;;;;;;;;5.25;5.25;;;;;7.49;98.63;99120.69;5080014;27;45562;-72